createdAt,value
2019-05-15T00:02:10.612Z,8.49
2019-05-15T00:04:38.820Z,8.53
2019-05-15T00:07:10.373Z,8.49
2019-05-15T00:09:42.053Z,8.51
2019-05-15T00:12:13.553Z,8.49
2019-05-15T00:14:45.157Z,8.31
2019-05-15T00:17:19.006Z,8.20
2019-05-15T00:19:50.033Z,8.20
2019-05-15T00:22:21.636Z,8.20
2019-05-15T00:24:53.206Z,8.20
2019-05-15T00:27:24.836Z,8.25
2019-05-15T00:29:57.913Z,8.25
2019-05-15T00:32:29.657Z,8.20
2019-05-15T00:35:01.276Z,8.12
2019-05-15T00:37:32.838Z,8.11
2019-05-15T00:40:04.431Z,8.07
2019-05-15T00:42:38.107Z,8.09
2019-05-15T00:45:09.782Z,8.03
2019-05-15T00:47:41.363Z,8.02
2019-05-15T00:50:13.027Z,8.02
2019-05-15T00:52:44.570Z,8.02
2019-05-15T00:55:16.285Z,8.01
2019-05-15T00:57:48.576Z,8.05
2019-05-15T01:00:43.651Z,8.01
2019-05-15T01:03:15.193Z,7.99
2019-05-15T01:05:48.020Z,7.96
2019-05-15T01:08:19.765Z,7.92
2019-05-15T01:10:51.407Z,7.89
2019-05-15T01:13:22.942Z,7.86
2019-05-15T01:15:54.598Z,7.84
2019-05-15T01:18:26.131Z,7.81
2019-05-15T01:20:58.706Z,7.76
2019-05-15T01:23:30.338Z,7.71
2019-05-15T01:26:02.517Z,7.64
2019-05-15T01:28:34.055Z,7.63
2019-05-15T01:31:05.609Z,7.64
2019-05-15T01:33:39.204Z,7.59
2019-05-15T01:36:10.408Z,7.50
2019-05-15T01:38:41.965Z,7.41
2019-05-15T01:41:13.531Z,7.35
2019-05-15T01:43:45.070Z,7.25
2019-05-15T01:46:18.906Z,7.20
2019-05-15T01:48:49.879Z,7.18
2019-05-15T01:51:21.447Z,7.16
2019-05-15T01:53:52.986Z,7.22
2019-05-15T01:56:24.545Z,7.15
2019-05-15T01:58:57.970Z,7.23
2019-05-15T02:01:29.342Z,7.13
2019-05-15T02:04:00.882Z,7.09
2019-05-15T02:06:32.430Z,7.12
2019-05-15T02:09:08.295Z,7.05
2019-05-15T02:11:39.478Z,7.02
2019-05-15T02:14:11.047Z,6.98
2019-05-15T02:16:42.582Z,6.91
2019-05-15T02:19:14.141Z,6.92
2019-05-15T02:21:45.711Z,6.91
2019-05-15T02:24:18.858Z,6.95
2019-05-15T02:26:51.770Z,6.90
2019-05-15T02:29:25.189Z,6.92
2019-05-15T02:31:59.294Z,6.83
2019-05-15T02:34:30.917Z,6.84
2019-05-15T02:37:02.445Z,6.85
2019-05-15T02:39:33.999Z,6.84
2019-05-15T02:42:09.559Z,6.92
2019-05-15T02:44:39.946Z,6.93
2019-05-15T02:47:11.914Z,6.89
2019-05-15T02:49:43.475Z,6.88
2019-05-15T02:52:15.134Z,6.88
2019-05-15T02:54:49.725Z,6.91
2019-05-15T02:57:19.930Z,6.87
2019-05-15T02:59:51.490Z,6.90
2019-05-15T03:02:23.039Z,6.95
2019-05-15T03:04:54.598Z,6.97
2019-05-15T03:07:29.290Z,6.96
2019-05-15T03:10:00.075Z,6.91
2019-05-15T03:12:31.807Z,6.95
2019-05-15T03:15:03.477Z,6.97
2019-05-15T03:17:35.024Z,6.99
2019-05-15T03:20:10.386Z,7.04
2019-05-15T03:22:40.743Z,7.08
2019-05-15T03:25:12.653Z,7.05
2019-05-15T03:27:44.191Z,7.12
2019-05-15T03:30:21.075Z,7.09
2019-05-15T03:33:00.577Z,7.10
2019-05-15T03:35:23.569Z,7.12
2019-05-15T03:37:55.285Z,7.14
2019-05-15T03:40:29.574Z,7.14
2019-05-15T03:43:00.069Z,7.21
2019-05-15T03:45:31.604Z,7.20
2019-05-15T03:48:03.148Z,7.24
2019-05-15T03:50:34.668Z,7.28
2019-05-15T03:53:09.800Z,7.32
2019-05-15T03:55:40.412Z,7.35
2019-05-15T03:58:12.468Z,7.38
2019-05-15T04:00:44.010Z,7.41
2019-05-15T04:03:15.553Z,7.44
2019-05-15T04:05:49.408Z,7.48
2019-05-15T04:08:20.379Z,7.49
2019-05-15T04:10:51.936Z,7.51
2019-05-15T04:13:23.466Z,7.56
2019-05-15T04:15:55.055Z,7.58
2019-05-15T04:18:29.156Z,7.61
2019-05-15T04:21:00.414Z,7.81
2019-05-15T04:23:32.052Z,7.76
2019-05-15T04:26:03.911Z,7.80
2019-05-15T04:28:41.265Z,7.84
2019-05-15T04:31:10.755Z,7.87
2019-05-15T04:33:42.283Z,7.92
2019-05-15T04:36:13.872Z,7.91
2019-05-15T04:38:49.372Z,7.79
2019-05-15T04:41:19.799Z,7.74
2019-05-15T04:43:51.692Z,7.77
2019-05-15T04:46:23.366Z,7.81
2019-05-15T04:48:54.899Z,7.81
2019-05-15T04:51:30.158Z,7.85
2019-05-15T04:53:59.692Z,7.91
2019-05-15T04:56:31.251Z,7.97
2019-05-15T04:59:02.812Z,8.02
2019-05-15T05:01:34.458Z,8.09
2019-05-15T05:04:06.019Z,8.14
2019-05-15T05:06:38.691Z,8.27
2019-05-15T05:09:10.512Z,8.29
2019-05-15T05:11:42.278Z,8.37
2019-05-15T05:14:13.833Z,8.38
2019-05-15T05:16:48.662Z,8.50
2019-05-15T05:19:19.532Z,8.61
2019-05-15T05:21:51.368Z,8.74
2019-05-15T05:24:22.943Z,8.82
2019-05-15T05:26:54.502Z,8.77
2019-05-15T05:29:27.999Z,8.81
2019-05-15T05:31:59.390Z,8.92
2019-05-15T05:34:30.943Z,9.14
2019-05-15T05:37:02.487Z,9.61
2019-05-15T05:39:34.040Z,10.00
2019-05-15T05:42:07.879Z,10.37
2019-05-15T05:44:42.624Z,10.78
2019-05-15T05:47:12.887Z,11.10
2019-05-15T05:49:44.436Z,11.58
2019-05-15T05:52:18.165Z,11.97
2019-05-15T05:54:49.287Z,12.18
2019-05-15T05:57:20.847Z,12.05
2019-05-15T05:59:52.454Z,12.42
2019-05-15T06:02:24.007Z,12.84
2019-05-15T06:04:58.268Z,13.26
2019-05-15T06:07:29.932Z,13.31
2019-05-15T06:10:01.564Z,13.35
2019-05-15T06:12:33.192Z,13.50
2019-05-15T06:15:05.360Z,13.51
2019-05-15T06:17:39.247Z,13.77
2019-05-15T06:20:10.268Z,14.27
2019-05-15T06:22:41.804Z,14.80
2019-05-15T06:25:13.488Z,15.23
2019-05-15T06:27:45.074Z,15.35
2019-05-15T06:30:22.055Z,15.17
2019-05-15T06:33:04.440Z,15.22
2019-05-15T06:35:23.434Z,15.47
2019-05-15T06:37:55.036Z,15.35
2019-05-15T06:40:28.982Z,15.72
2019-05-15T06:43:00.138Z,15.77
2019-05-15T06:45:31.762Z,16.05
2019-05-15T06:48:03.364Z,16.19
2019-05-15T06:50:39.765Z,16.32
2019-05-15T06:53:11.837Z,16.65
2019-05-15T06:55:43.431Z,16.81
2019-05-15T06:58:15.017Z,16.84
2019-05-15T07:00:48.878Z,16.69
2019-05-15T07:03:25.245Z,16.54
2019-05-15T07:05:53.192Z,16.65
2019-05-15T07:08:24.806Z,16.95
2019-05-15T07:10:57.867Z,16.55
2019-05-15T07:13:29.659Z,16.06
2019-05-15T07:16:02.338Z,16.21
2019-05-15T07:18:34.016Z,15.98
2019-05-15T07:21:05.634Z,16.31
2019-05-15T07:23:38.663Z,16.23
2019-05-15T07:26:10.635Z,15.99
2019-05-15T07:28:42.192Z,15.27
2019-05-15T07:31:14.838Z,15.56
2019-05-15T07:33:48.823Z,15.29
2019-05-15T07:36:19.688Z,15.63
2019-05-15T07:38:51.249Z,15.52
2019-05-15T07:41:22.830Z,15.73
2019-05-15T07:43:54.381Z,16.29
2019-05-15T07:46:25.967Z,16.36
2019-05-15T07:48:58.327Z,16.45
2019-05-15T07:51:31.066Z,16.60
2019-05-15T07:54:02.843Z,16.66
2019-05-15T07:56:34.544Z,16.01
2019-05-15T07:59:08.019Z,15.68
2019-05-15T08:01:39.470Z,15.73
2019-05-15T08:04:25.154Z,15.18
2019-05-15T08:06:44.288Z,15.52
2019-05-15T08:09:17.841Z,15.58
2019-05-15T08:11:49.125Z,15.45
2019-05-15T08:14:20.696Z,15.62
2019-05-15T08:16:52.310Z,15.66
2019-05-15T08:19:23.821Z,15.19
2019-05-15T08:21:55.387Z,15.34
2019-05-15T08:24:29.794Z,15.44
2019-05-15T08:27:00.205Z,15.55
2019-05-15T08:29:31.770Z,15.55
2019-05-15T08:32:03.380Z,15.81
2019-05-15T08:34:34.940Z,16.17
2019-05-15T08:37:07.953Z,16.26
2019-05-15T08:39:39.672Z,16.75
2019-05-15T08:42:11.231Z,16.85
2019-05-15T08:44:42.982Z,16.34
2019-05-15T08:47:14.588Z,16.23
2019-05-15T08:49:48.364Z,16.35
2019-05-15T08:52:19.435Z,16.42
2019-05-15T08:54:51.014Z,16.76
2019-05-15T08:57:22.559Z,16.73
2019-05-15T08:59:54.167Z,16.36
2019-05-15T09:02:25.707Z,16.45
2019-05-15T09:04:58.079Z,16.54
2019-05-15T09:07:29.812Z,16.80
2019-05-15T09:10:01.404Z,17.14
2019-05-15T09:12:32.973Z,16.91
2019-05-15T09:15:04.540Z,16.40
2019-05-15T09:17:36.103Z,16.14
2019-05-15T09:20:09.393Z,15.67
2019-05-15T09:22:42.020Z,15.85
2019-05-15T09:25:13.932Z,15.97
2019-05-15T09:27:45.516Z,16.48
2019-05-15T09:30:18.255Z,16.70
2019-05-15T09:32:50.051Z,16.80
2019-05-15T09:35:22.628Z,16.49
2019-05-15T09:37:54.202Z,16.69
2019-05-15T09:40:39.491Z,16.61
2019-05-15T09:42:59.044Z,16.15
2019-05-15T09:45:30.633Z,15.56
2019-05-15T09:48:02.269Z,15.52
2019-05-15T09:50:33.812Z,15.89
2019-05-15T09:53:05.403Z,16.12
2019-05-15T09:55:38.344Z,16.06
2019-05-15T09:58:09.921Z,15.96
2019-05-15T10:00:41.486Z,16.25
2019-05-15T10:03:13.579Z,16.40
2019-05-15T10:05:45.280Z,16.39
2019-05-15T10:08:16.935Z,16.47
2019-05-15T10:10:48.909Z,16.62
2019-05-15T10:13:20.638Z,17.05
2019-05-15T10:15:52.182Z,17.46
2019-05-15T10:18:23.772Z,17.54
2019-05-15T10:20:57.591Z,17.31
2019-05-15T10:23:29.366Z,17.57
2019-05-15T10:26:01.210Z,17.38
2019-05-15T10:28:32.949Z,16.31
2019-05-15T10:31:04.519Z,16.30
2019-05-15T10:33:36.100Z,16.65
2019-05-15T10:36:08.414Z,16.59
2019-05-15T10:38:41.259Z,16.89
2019-05-15T10:41:15.253Z,16.57
2019-05-15T10:43:54.603Z,16.65
2019-05-15T10:46:19.537Z,16.04
2019-05-15T10:48:52.615Z,15.73
2019-05-15T10:51:24.184Z,15.53
2019-05-15T10:53:56.774Z,15.29
2019-05-15T10:56:29.165Z,15.47
2019-05-15T10:59:01.024Z,15.82
2019-05-15T11:01:32.797Z,16.15
2019-05-15T11:04:04.400Z,16.54
2019-05-15T11:06:38.275Z,16.58
2019-05-15T11:09:09.577Z,16.45
2019-05-15T11:11:41.173Z,16.78
2019-05-15T11:14:12.729Z,17.17
2019-05-15T11:16:44.314Z,17.42
2019-05-15T11:19:15.895Z,17.64
2019-05-15T11:21:48.598Z,18.10
2019-05-15T11:24:20.352Z,17.40
2019-05-15T11:26:51.931Z,16.79
2019-05-15T11:29:23.510Z,16.39
2019-05-15T11:31:55.083Z,16.07
2019-05-15T11:34:29.006Z,16.02
2019-05-15T11:36:59.921Z,16.20
2019-05-15T11:39:31.515Z,16.60
2019-05-15T11:42:03.094Z,16.50
2019-05-15T11:44:34.696Z,16.50
2019-05-15T11:47:06.281Z,16.34
2019-05-15T11:49:38.363Z,16.48
2019-05-15T11:52:10.193Z,16.59
2019-05-15T11:54:41.746Z,16.96
2019-05-15T11:57:14.032Z,17.07
2019-05-15T11:59:46.363Z,16.68
2019-05-15T12:02:19.062Z,16.32
2019-05-15T12:04:50.646Z,16.25
2019-05-15T12:07:22.216Z,16.34
2019-05-15T12:09:54.533Z,16.65
2019-05-15T12:12:31.310Z,16.99
2019-05-15T12:14:59.676Z,16.85
2019-05-15T12:17:34.091Z,16.56
2019-05-15T12:20:06.705Z,16.45
2019-05-15T12:22:39.138Z,16.46
2019-05-15T12:25:11.687Z,16.76
2019-05-15T12:27:43.539Z,16.67
2019-05-15T12:30:15.732Z,16.28
2019-05-15T12:32:49.246Z,15.78
2019-05-15T12:35:21.071Z,15.74
2019-05-15T12:37:52.619Z,15.86
2019-05-15T13:00:53.473Z,16.48
2019-05-15T13:03:25.051Z,16.64
2019-05-15T13:05:56.652Z,16.22
2019-05-15T13:08:29.069Z,15.85
2019-05-15T13:11:00.932Z,15.40
2019-05-15T13:13:33.566Z,15.24
2019-05-15T13:16:05.164Z,15.18
2019-05-15T13:18:38.774Z,15.50
2019-05-15T13:21:10.334Z,15.76
2019-05-15T13:23:41.911Z,15.80
2019-05-15T13:26:23.375Z,15.99
2019-05-15T13:28:48.873Z,16.32
2019-05-15T13:31:20.330Z,16.38
2019-05-15T13:33:51.938Z,16.18
2019-05-15T13:36:23.573Z,15.82
2019-05-15T13:38:55.146Z,15.57
2019-05-15T13:41:28.285Z,15.75
2019-05-15T13:44:00.150Z,16.00
2019-05-15T13:46:33.021Z,16.23
2019-05-15T13:49:04.867Z,16.27
2019-05-15T13:51:38.459Z,16.03
2019-05-15T13:54:09.755Z,15.73
2019-05-15T13:56:41.325Z,15.68
2019-05-15T13:59:12.909Z,15.76
2019-05-15T14:01:44.506Z,16.08
2019-05-15T14:04:18.379Z,16.03
2019-05-15T14:06:49.391Z,15.96
2019-05-15T14:09:20.982Z,16.08
2019-05-15T14:11:52.587Z,16.17
2019-05-15T14:14:24.685Z,16.16
2019-05-15T14:16:56.264Z,16.23
2019-05-15T14:19:29.534Z,16.29
2019-05-15T14:22:01.220Z,16.12
2019-05-15T14:24:32.810Z,15.95
2019-05-15T14:27:04.363Z,15.87
2019-05-15T14:29:35.944Z,15.95
2019-05-15T14:32:08.231Z,15.94
2019-05-15T14:34:40.017Z,16.23
2019-05-15T14:37:11.638Z,16.39
2019-05-15T14:39:43.240Z,16.19
2019-05-15T14:42:14.819Z,16.28
2019-05-15T14:44:59.226Z,16.28
2019-05-15T14:47:30.961Z,16.32
2019-05-15T14:50:02.625Z,16.47
2019-05-15T14:52:34.189Z,16.51
2019-05-15T14:55:06.270Z,16.11
2019-05-15T14:57:39.173Z,15.91
2019-05-15T15:00:11.887Z,15.97
2019-05-15T15:02:43.465Z,16.09
2019-05-15T15:05:15.048Z,16.18
2019-05-15T15:07:49.091Z,16.20
2019-05-15T15:10:20.482Z,16.12
2019-05-15T15:12:53.075Z,16.02
2019-05-15T15:15:24.616Z,15.88
2019-05-15T15:17:58.305Z,15.65
2019-05-15T15:20:29.489Z,15.61
2019-05-15T15:23:01.092Z,15.58
2019-05-15T15:25:32.676Z,15.57
2019-05-15T15:28:08.231Z,15.53
2019-05-15T15:30:40.213Z,15.43
2019-05-15T15:33:11.857Z,15.37
2019-05-15T15:35:43.436Z,15.34
2019-05-15T15:38:15.059Z,15.33
2019-05-15T15:40:48.163Z,15.38
2019-05-15T15:43:19.924Z,15.38
2019-05-15T15:45:51.499Z,15.33
2019-05-15T15:48:23.101Z,15.27
2019-05-15T15:50:54.689Z,15.32
2019-05-15T15:53:28.418Z,15.21
2019-05-15T15:56:00.645Z,15.31
2019-05-15T15:58:32.254Z,15.34
2019-05-15T16:01:03.842Z,15.43
2019-05-15T16:03:37.866Z,15.34
2019-05-15T16:06:08.692Z,15.25
2019-05-15T16:08:51.920Z,15.30
2019-05-15T16:11:13.591Z,15.29
2019-05-15T16:13:46.448Z,15.23
2019-05-15T16:16:18.504Z,15.16
2019-05-15T16:18:50.114Z,15.00
2019-05-15T16:21:21.974Z,15.07
2019-05-15T16:23:53.591Z,15.25
2019-05-15T16:26:26.218Z,15.30
2019-05-15T16:28:57.985Z,15.35
2019-05-15T16:31:31.170Z,15.44
2019-05-15T16:34:03.452Z,15.52
2019-05-15T16:36:35.050Z,15.58
2019-05-15T16:39:11.356Z,15.75
2019-05-15T16:41:41.500Z,15.68
2019-05-15T16:44:13.101Z,15.66
2019-05-15T16:46:44.967Z,15.65
2019-05-15T16:49:18.791Z,15.38
2019-05-15T16:51:50.141Z,15.16
2019-05-15T16:54:21.777Z,15.04
2019-05-15T16:56:53.668Z,14.73
2019-05-15T16:59:25.523Z,14.85
2019-05-15T17:01:57.128Z,14.68
2019-05-15T17:04:29.099Z,14.64
2019-05-15T17:07:00.715Z,14.53
2019-05-15T17:09:32.381Z,14.49
2019-05-15T17:12:04.265Z,14.35
2019-05-15T17:14:38.815Z,14.30
2019-05-15T17:17:09.443Z,14.21
2019-05-15T17:19:41.052Z,14.07
2019-05-15T17:22:13.072Z,14.11
2019-05-15T17:24:44.947Z,14.04
2019-05-15T17:27:18.227Z,13.92
2019-05-15T17:29:49.869Z,13.88
2019-05-15T17:32:21.470Z,13.83
2019-05-15T17:34:53.118Z,13.82
2019-05-15T17:37:24.733Z,13.90
2019-05-15T17:39:56.311Z,13.87
2019-05-15T17:42:28.938Z,13.84
2019-05-15T17:45:00.704Z,13.80
2019-05-15T17:47:32.293Z,13.73
2019-05-15T17:50:04.013Z,13.71
2019-05-15T17:52:35.614Z,13.76
2019-05-15T17:55:07.299Z,13.70
2019-05-15T17:57:39.120Z,13.52
2019-05-15T18:00:12.818Z,13.50
2019-05-15T18:02:44.765Z,13.53
2019-05-15T18:05:18.847Z,13.50
2019-05-15T18:07:50.018Z,13.35
2019-05-15T18:10:21.616Z,13.25
2019-05-15T18:12:53.241Z,13.31
2019-05-15T18:15:24.840Z,13.30
2019-05-15T18:17:59.168Z,13.24
2019-05-15T18:20:31.233Z,13.17
2019-05-15T18:23:02.978Z,13.17
2019-05-15T18:25:34.636Z,13.22
2019-05-15T18:28:08.557Z,13.25
2019-05-15T18:30:40.675Z,13.20
2019-05-15T18:33:12.298Z,13.27
2019-05-15T18:35:43.897Z,13.29
2019-05-15T18:38:15.540Z,13.30
2019-05-15T18:40:48.820Z,13.25
2019-05-15T18:43:20.460Z,13.22
2019-05-15T18:45:52.063Z,13.01
2019-05-15T18:48:23.715Z,13.00
2019-05-15T18:50:55.314Z,12.96
2019-05-15T18:53:28.339Z,12.91
2019-05-15T18:56:00.396Z,12.77
2019-05-15T18:58:32.025Z,12.68
2019-05-15T19:01:03.888Z,12.54
2019-05-15T19:03:35.553Z,12.53
2019-05-15T19:06:08.871Z,12.47
2019-05-15T19:08:40.768Z,12.39
2019-05-15T19:11:12.374Z,12.40
2019-05-15T19:13:43.968Z,12.37
2019-05-15T19:16:15.572Z,12.35
2019-05-15T19:18:47.941Z,12.35
2019-05-15T19:21:19.653Z,12.30
2019-05-15T19:23:51.372Z,12.29
2019-05-15T19:26:22.951Z,12.23
2019-05-15T19:28:54.573Z,12.23
2019-05-15T19:31:30.226Z,12.14
2019-05-15T19:34:01.179Z,12.07
2019-05-15T19:36:33.041Z,11.98
2019-05-15T19:39:07.919Z,11.84
2019-05-15T19:41:38.932Z,11.79
2019-05-15T19:44:10.621Z,11.75
2019-05-15T19:46:42.220Z,11.72
2019-05-15T19:49:14.032Z,11.74
2019-05-15T19:51:45.712Z,11.78
2019-05-15T19:54:18.391Z,11.61
2019-05-15T19:56:50.118Z,11.65
2019-05-15T19:59:22.645Z,11.65
2019-05-15T20:01:57.671Z,11.60
2019-05-15T20:04:29.218Z,11.56
2019-05-15T20:07:00.975Z,11.46
2019-05-15T20:09:32.638Z,11.44
2019-05-15T20:12:04.380Z,11.36
2019-05-15T20:14:38.179Z,11.41
2019-05-15T20:17:09.364Z,11.30
2019-05-15T20:19:41.087Z,11.13
2019-05-15T20:22:12.715Z,11.13
2019-05-15T20:24:44.383Z,10.99
2019-05-15T20:27:16.119Z,10.91
2019-05-15T20:29:49.401Z,11.00
2019-05-15T20:32:21.029Z,10.89
2019-05-15T20:34:52.646Z,10.82
2019-05-15T20:37:24.303Z,10.72
2019-05-15T20:39:57.949Z,10.70
2019-05-15T20:42:29.256Z,10.55
2019-05-15T20:45:00.838Z,10.58
2019-05-15T20:47:32.541Z,10.52
2019-05-15T20:50:04.182Z,10.51
2019-05-15T20:52:35.762Z,10.53
2019-05-15T20:55:07.993Z,10.48
2019-05-15T20:57:40.935Z,10.39
2019-05-15T21:00:14.506Z,10.36
2019-05-15T21:02:48.388Z,10.24
2019-05-15T21:05:19.435Z,10.15
2019-05-15T21:07:51.087Z,10.16
2019-05-15T21:10:22.974Z,10.15
2019-05-15T21:12:54.553Z,10.15
2019-05-15T21:15:26.133Z,10.09
2019-05-15T21:18:07.771Z,10.12
2019-05-15T21:20:31.031Z,10.21
2019-05-15T21:23:02.651Z,10.16
2019-05-15T21:25:34.290Z,10.14
2019-05-15T21:28:08.236Z,10.14
2019-05-15T21:30:41.039Z,10.16
2019-05-15T21:33:12.514Z,10.17
2019-05-15T21:35:44.115Z,10.13
2019-05-15T21:38:15.754Z,10.14
2019-05-15T21:40:47.958Z,10.16
2019-05-15T21:43:19.718Z,10.16
2019-05-15T21:45:51.349Z,10.14
2019-05-15T21:48:22.916Z,10.16
2019-05-15T21:50:54.710Z,10.14
2019-05-15T21:53:28.548Z,10.17
2019-05-15T21:55:59.602Z,10.17
2019-05-15T21:58:31.235Z,10.17
2019-05-15T22:01:03.124Z,10.17
2019-05-15T22:03:38.548Z,10.17
2019-05-15T22:06:09.582Z,10.17
2019-05-15T22:08:41.199Z,10.07
2019-05-15T22:11:12.858Z,10.07
2019-05-15T22:13:44.445Z,10.05
2019-05-15T22:16:18.330Z,10.05
2019-05-15T22:18:49.490Z,10.01
2019-05-15T22:21:21.063Z,9.96
2019-05-15T22:23:52.691Z,9.92
2019-05-15T22:26:24.249Z,9.92
2019-05-15T22:28:58.020Z,9.89
2019-05-15T22:31:29.106Z,9.89
2019-05-15T22:34:00.712Z,9.89
2019-05-15T22:36:32.359Z,9.84
2019-05-15T22:39:04.633Z,9.78
2019-05-15T22:41:38.735Z,9.78
2019-05-15T22:44:10.373Z,9.78
2019-05-15T22:46:41.921Z,9.80
2019-05-15T22:49:13.497Z,9.81
2019-05-15T22:51:48.471Z,9.79
2019-05-15T22:54:20.540Z,9.70
2019-05-15T22:56:52.267Z,9.73
2019-05-15T22:59:24.316Z,9.74
2019-05-15T23:01:58.052Z,9.69
2019-05-15T23:04:29.192Z,9.68
2019-05-15T23:07:00.768Z,9.66
2019-05-15T23:09:32.342Z,9.65
2019-05-15T23:12:04.129Z,9.61
2019-05-15T23:14:37.852Z,9.62
2019-05-15T23:17:08.943Z,9.54
2019-05-15T23:19:40.499Z,9.53
2019-05-15T23:22:12.199Z,9.46
2019-05-15T23:24:43.741Z,9.40
2019-05-15T23:27:15.358Z,9.28
2019-05-15T23:29:48.985Z,9.21
2019-05-15T23:32:20.190Z,9.22
2019-05-15T23:34:51.725Z,9.20
2019-05-15T23:37:23.295Z,9.13
2019-05-15T23:39:54.830Z,8.98
2019-05-15T23:42:29.029Z,8.89
2019-05-15T23:44:59.688Z,8.84
2019-05-15T23:47:31.238Z,8.78
2019-05-15T23:50:02.795Z,8.71
2019-05-15T23:52:34.342Z,8.67
2019-05-15T23:55:08.296Z,8.64
2019-05-15T23:57:39.507Z,8.60
